Western Head, Canada
Current Conditions -  °F | °C
As of 11:00 PM on Friday 19 Dec 2014 (Local Time) from CYZX Reporting Station
Overcast Overcast  
Wind Chill: 23°   Ceiling: 2600
Heat Index: 32°   Visibility: 15mi
Dew Point: 27°   Wind: 12mph
Humidity: 80%   Direction: 20°NNE
Pressure: 30"   Gusts: 18mph
Location:  43.99°N, 64.68°W
Report Text: CYZX 200300Z 02010G16KT 15SM OVC026 00/M03 A3000 RMK SC8 WNDY HILL 04011G18KT SLP161
Loading
Personal Weather Stations






























Interactive Weather Map New forecast layout! Learn more

10-Day Weather Forecast

Advertisements
Track Severe Weather on mobile